createdAt,value
2019-04-05T00:00:07.136Z,41.58
2019-04-05T00:02:36.274Z,39.42
2019-04-05T00:05:07.056Z,42.13
2019-04-05T00:07:36.184Z,41.20
2019-04-05T00:10:07.784Z,42.75
2019-04-05T00:12:36.844Z,40.75
2019-04-05T00:15:15.216Z,40.12
2019-04-05T00:17:37.928Z,42.20
2019-04-05T00:20:08.238Z,41.90
2019-04-05T00:22:37.278Z,43.05
2019-04-05T00:25:06.795Z,41.85
2019-04-05T00:27:35.839Z,41.90
2019-04-05T00:30:07.989Z,42.23
2019-04-05T00:32:37.048Z,41.92
2019-04-05T00:35:09.023Z,42.35
2019-04-05T00:37:38.073Z,41.58
2019-04-05T00:40:10.684Z,41.33
2019-04-05T00:42:39.786Z,42.13
2019-04-05T00:45:09.400Z,42.38
2019-04-05T00:47:38.703Z,41.05
2019-04-05T00:50:08.603Z,41.55
2019-04-05T00:52:37.738Z,39.50
2019-04-05T00:55:07.432Z,40.10
2019-04-05T00:57:36.573Z,40.08
2019-04-05T01:00:07.081Z,39.10
2019-04-05T01:02:36.211Z,39.58
2019-04-05T01:05:06.615Z,37.67
2019-04-05T01:07:35.642Z,37.33
2019-04-05T01:10:06.856Z,39.40
2019-04-05T01:12:36.531Z,38.00
2019-04-05T01:15:07.393Z,38.73
2019-04-05T01:17:36.904Z,38.13
2019-04-05T01:20:07.083Z,38.42
2019-04-05T01:22:36.683Z,37.73
2019-04-05T01:25:06.497Z,38.78
2019-04-05T01:27:37.469Z,37.23
2019-04-05T01:30:08.875Z,36.83
2019-04-05T01:32:37.925Z,36.58
2019-04-05T01:35:07.437Z,37.08
2019-04-05T01:37:37.735Z,38.50
2019-04-05T01:40:07.932Z,39.45
2019-04-05T01:42:38.133Z,38.88
2019-04-05T01:45:08.451Z,37.45
2019-04-05T01:47:37.839Z,39.53
2019-04-05T01:50:08.848Z,39.42
2019-04-05T01:52:38.745Z,38.75
2019-04-05T01:55:08.287Z,38.38
2019-04-05T01:57:37.348Z,38.30
2019-04-05T02:00:09.599Z,39.55
2019-04-05T02:02:39.231Z,39.23
2019-04-05T02:05:09.274Z,39.15
2019-04-05T02:07:38.866Z,40.10
2019-04-05T02:10:09.630Z,38.92
2019-04-05T02:12:39.928Z,39.60
2019-04-05T02:15:12.204Z,37.85
2019-04-05T02:17:41.395Z,38.55
2019-04-05T02:20:10.905Z,39.98
2019-04-05T02:22:40.031Z,38.67
2019-04-05T02:25:09.174Z,37.67
2019-04-05T02:27:38.256Z,38.40
2019-04-05T02:30:07.654Z,38.10
2019-04-05T02:32:36.717Z,37.38
2019-04-05T02:35:07.415Z,37.95
2019-04-05T02:37:37.215Z,37.65
2019-04-05T02:40:14.374Z,38.45
2019-04-05T02:42:46.984Z,38.15
2019-04-05T02:45:17.420Z,37.70
2019-04-05T02:47:51.796Z,37.55
2019-04-05T02:50:22.964Z,36.83
2019-04-05T02:52:55.330Z,37.42
2019-04-05T02:55:25.527Z,36.95
2019-04-05T02:57:56.602Z,37.60
2019-04-05T03:00:25.825Z,39.35
2019-04-05T03:02:55.421Z,38.38
2019-04-05T03:05:25.527Z,38.85
2019-04-05T03:07:54.823Z,36.83
2019-04-05T03:11:02.596Z,38.05
2019-04-05T03:13:40.477Z,37.58
2019-04-05T03:16:12.715Z,42.25
2019-04-05T03:18:44.985Z,41.73
2019-04-05T03:21:15.976Z,42.67
2019-04-05T03:23:45.962Z,41.70
2019-04-05T03:26:18.176Z,41.80
2019-04-05T03:28:50.356Z,43.50
2019-04-05T03:31:24.211Z,42.13
2019-04-05T03:33:50.695Z,44.67
2019-04-05T03:36:20.131Z,44.27
2019-04-05T03:38:49.589Z,43.87
2019-04-05T03:41:19.113Z,44.50
2019-04-05T03:43:49.413Z,44.27
2019-04-05T03:46:18.857Z,45.10
2019-04-05T03:48:49.251Z,43.75
2019-04-05T03:51:18.685Z,43.45
2019-04-05T03:53:47.872Z,45.40
2019-04-05T03:56:17.320Z,46.25
2019-04-05T03:58:46.837Z,45.12
2019-04-05T04:01:16.077Z,44.13
2019-04-05T04:03:45.373Z,45.05
2019-04-05T04:06:14.959Z,43.73
2019-04-05T04:08:44.390Z,45.45
2019-04-05T04:11:13.769Z,45.35
2019-04-05T04:13:43.285Z,45.23
2019-04-05T04:16:12.476Z,44.60
2019-04-05T04:18:41.687Z,45.90
2019-04-05T04:21:28.237Z,46.42
2019-04-05T04:23:57.591Z,46.18
2019-04-05T04:26:27.190Z,46.75
2019-04-05T04:28:57.294Z,45.00
2019-04-05T04:31:26.731Z,45.80
2019-04-05T04:33:56.829Z,45.17
2019-04-05T04:36:25.975Z,45.45
2019-04-05T04:38:55.368Z,44.98
2019-04-05T04:41:24.601Z,46.08
2019-04-05T04:43:54.823Z,46.50
2019-04-05T04:46:24.353Z,44.85
2019-04-05T04:48:54.155Z,46.37
2019-04-05T04:51:23.915Z,46.42
2019-04-05T04:53:53.483Z,44.33
2019-04-05T04:56:23.074Z,45.28
2019-04-05T04:58:52.514Z,45.55
2019-04-05T05:01:21.569Z,48.70
2019-04-05T05:03:52.256Z,46.77
2019-04-05T05:06:21.645Z,44.83
2019-04-05T05:08:50.845Z,45.95
2019-04-05T05:11:20.181Z,47.78
2019-04-05T05:13:49.487Z,43.60
2019-04-05T05:16:18.803Z,46.13
2019-04-05T05:18:48.391Z,46.18
2019-04-05T05:21:17.879Z,47.60
2019-04-05T05:23:47.475Z,48.90
2019-04-05T05:26:16.604Z,45.85
2019-04-05T05:28:45.760Z,44.42
2019-04-05T05:31:15.168Z,44.85
2019-04-05T05:33:44.553Z,44.27
2019-04-05T05:36:13.666Z,45.23
2019-04-05T05:38:43.291Z,44.40
2019-04-05T05:41:12.423Z,45.83
2019-04-05T05:43:41.506Z,45.00
2019-04-05T05:46:10.644Z,43.05
2019-04-05T05:48:40.173Z,42.83
2019-04-05T05:51:09.694Z,42.88
2019-04-05T05:53:39.396Z,42.73
2019-04-05T05:56:08.488Z,41.23
2019-04-05T05:58:37.548Z,41.02
2019-04-05T06:01:06.620Z,41.37
2019-04-05T06:03:35.686Z,40.65
2019-04-05T06:06:04.987Z,40.65
2019-04-05T06:08:34.119Z,39.53
2019-04-05T06:11:03.356Z,42.45
2019-04-05T06:13:32.510Z,40.58
2019-04-05T06:16:01.557Z,40.35
2019-04-05T06:18:30.630Z,40.65
2019-04-05T06:20:59.705Z,40.92
2019-04-05T06:23:33.911Z,39.80
2019-04-05T06:25:59.551Z,40.58
2019-04-05T06:28:28.642Z,39.98
2019-04-05T06:30:57.757Z,39.88
2019-04-05T06:33:31.832Z,39.75
2019-04-05T06:35:57.603Z,39.80
2019-04-05T06:38:26.843Z,40.58
2019-04-05T06:40:55.927Z,38.75
2019-04-05T06:43:25.026Z,39.83
2019-04-05T06:45:54.187Z,41.08
2019-04-05T06:48:23.302Z,40.50
2019-04-05T06:50:52.363Z,37.80
2019-04-05T06:53:21.458Z,39.95
2019-04-05T06:55:50.506Z,37.67
2019-04-05T06:58:20.277Z,39.92
2019-04-05T07:00:56.961Z,47.98
2019-04-05T07:03:20.466Z,38.05
2019-04-05T07:05:49.522Z,39.75
2019-04-05T07:08:18.686Z,38.17
2019-04-05T07:10:47.746Z,39.73
2019-04-05T07:13:16.797Z,37.93
2019-04-05T07:15:45.877Z,39.48
2019-04-05T07:18:15.004Z,36.88
2019-04-05T07:20:44.085Z,38.02
2019-04-05T07:23:13.158Z,36.28
2019-04-05T07:25:42.227Z,37.20
2019-04-05T07:28:11.284Z,36.20
2019-04-05T07:30:40.364Z,35.43
2019-04-05T07:33:09.428Z,36.33
2019-04-05T07:35:38.578Z,37.00
2019-04-05T07:38:09.780Z,35.45
2019-04-05T07:40:38.549Z,33.23
2019-04-05T07:43:07.654Z,35.03
2019-04-05T07:45:36.905Z,35.17
2019-04-05T07:48:06.075Z,34.38
2019-04-05T07:50:35.128Z,34.33
2019-04-05T07:53:04.264Z,33.40
2019-04-05T07:55:33.430Z,34.53
2019-04-05T07:58:02.523Z,34.63
2019-04-05T08:00:52.352Z,33.80
2019-04-05T08:03:22.144Z,40.92
2019-04-05T08:05:52.153Z,36.23
2019-04-05T08:08:36.257Z,37.63
2019-04-05T08:11:05.841Z,33.28
2019-04-05T08:13:36.870Z,36.93
2019-04-05T08:16:06.008Z,33.85
2019-04-05T08:18:35.066Z,36.58
2019-04-05T08:21:04.213Z,35.33
2019-04-05T08:23:33.262Z,35.17
2019-04-05T08:26:02.614Z,36.05
2019-04-05T08:28:31.669Z,35.48
2019-04-05T08:31:00.764Z,35.00
2019-04-05T08:33:29.828Z,36.85
2019-04-05T08:35:58.887Z,37.28
2019-04-05T08:38:27.983Z,34.88
2019-04-05T08:40:57.048Z,34.58
2019-04-05T08:43:26.114Z,35.70
2019-04-05T08:45:55.181Z,35.10
2019-04-05T08:48:24.218Z,35.28
2019-04-05T08:50:53.370Z,35.48
2019-04-05T08:53:22.428Z,35.33
2019-04-05T08:55:51.495Z,34.78
2019-04-05T08:58:32.593Z,34.58
2019-04-05T09:00:51.313Z,34.73
2019-04-05T09:03:20.413Z,36.17
2019-04-05T09:05:49.565Z,34.20
2019-04-05T09:08:21.312Z,35.40
2019-04-05T09:10:49.468Z,34.98
2019-04-05T09:13:18.607Z,33.23
2019-04-05T09:15:47.697Z,33.23
2019-04-05T09:20:50.053Z,35.05
2019-04-05T09:23:19.104Z,35.33
2019-04-05T09:25:48.173Z,33.33
2019-04-05T09:28:17.219Z,32.40
2019-04-05T09:30:46.301Z,32.70
2019-04-05T09:33:15.631Z,32.17
2019-04-05T09:35:44.697Z,31.77
2019-04-05T09:38:13.754Z,32.93
2019-04-05T09:40:42.911Z,33.00
2019-04-05T09:43:12.001Z,32.30
2019-04-05T09:45:41.160Z,32.78
2019-04-05T09:48:10.212Z,34.70
2019-04-05T09:50:39.281Z,32.45
2019-04-05T09:53:08.344Z,30.20
2019-04-05T09:55:37.403Z,30.85
2019-04-05T09:58:09.697Z,32.55
2019-04-05T10:00:38.566Z,31.25
2019-04-05T10:03:07.630Z,32.40
2019-04-05T10:05:36.698Z,33.00
2019-04-05T10:08:05.796Z,34.03
2019-04-05T10:10:34.854Z,33.45
2019-04-05T10:13:04.158Z,34.18
2019-04-05T10:15:33.222Z,32.23
2019-04-05T10:18:02.302Z,33.75
2019-04-05T10:20:31.372Z,32.40
2019-04-05T10:23:00.457Z,32.35
2019-04-05T10:25:29.539Z,32.03
2019-04-05T10:27:58.706Z,32.73
2019-04-05T10:30:27.811Z,32.10
2019-04-05T10:32:56.880Z,32.67
2019-04-05T10:35:25.945Z,31.85
2019-04-05T10:37:58.096Z,33.13
2019-04-05T10:40:25.838Z,32.70
2019-04-05T10:42:54.904Z,33.60
2019-04-05T10:45:24.039Z,33.50
2019-04-05T10:47:53.133Z,33.88
2019-04-05T10:50:22.421Z,33.15
2019-04-05T10:52:51.495Z,33.02
2019-04-05T10:55:20.623Z,34.65
2019-04-05T10:57:49.751Z,35.78
2019-04-05T11:00:19.445Z,35.03
2019-04-05T11:02:48.501Z,33.70
2019-04-05T11:05:17.591Z,33.20
2019-04-05T11:07:46.653Z,32.63
2019-04-05T11:10:16.023Z,32.88
2019-04-05T11:12:45.158Z,33.65
2019-04-05T11:15:15.237Z,34.38
2019-04-05T11:17:44.492Z,33.18
2019-04-05T11:20:21.258Z,34.15
2019-04-05T11:22:46.655Z,34.45
2019-04-05T11:25:16.745Z,33.80
2019-04-05T11:27:45.836Z,33.67
2019-04-05T11:30:16.818Z,36.38
2019-04-05T11:32:46.637Z,34.35
2019-04-05T11:35:15.726Z,35.38
2019-04-05T11:37:45.016Z,34.15
2019-04-05T11:40:14.524Z,35.75
2019-04-05T11:42:44.920Z,33.45
2019-04-05T11:45:14.331Z,34.90
2019-04-05T11:47:43.940Z,33.13
2019-04-05T11:50:14.617Z,34.60
2019-04-05T11:52:43.759Z,34.73
2019-04-05T11:55:12.895Z,34.45
2019-04-05T11:57:42.026Z,34.88
2019-04-05T12:00:14.388Z,40.70
2019-04-05T12:02:47.602Z,34.20
2019-04-05T12:05:17.775Z,33.23
2019-04-05T12:07:46.830Z,33.23
2019-04-05T12:10:18.713Z,33.20
2019-04-05T12:12:46.926Z,33.23
2019-04-05T12:15:16.012Z,33.13
2019-04-05T12:17:45.076Z,32.85
2019-04-05T12:20:14.654Z,33.25
2019-04-05T12:22:43.727Z,33.08
2019-04-05T12:25:13.045Z,34.10
2019-04-05T12:27:42.122Z,33.20
2019-04-05T12:30:13.268Z,33.55
2019-04-05T12:32:42.352Z,32.70
2019-04-05T12:35:11.575Z,34.95
2019-04-05T12:37:50.099Z,34.50
2019-04-05T12:40:14.648Z,34.63
2019-04-05T12:42:43.604Z,34.08
2019-04-05T12:45:15.338Z,33.30
2019-04-05T12:47:45.700Z,33.40
2019-04-05T12:50:15.598Z,35.52
2019-04-05T12:52:44.653Z,36.75
2019-04-05T12:55:15.055Z,34.30
2019-04-05T12:57:44.129Z,33.35
2019-04-05T13:00:15.829Z,35.28
2019-04-05T13:02:44.901Z,34.60
2019-04-05T13:05:14.156Z,33.45
2019-04-05T13:07:43.222Z,36.63
2019-04-05T13:10:13.285Z,35.73
2019-04-05T13:12:42.398Z,36.88
2019-04-05T13:15:16.802Z,35.75
2019-04-05T13:17:42.873Z,36.55
2019-04-05T13:20:12.524Z,35.60
2019-04-05T13:22:41.604Z,35.30
2019-04-05T13:25:11.524Z,34.88
2019-04-05T13:27:41.636Z,36.25
2019-04-05T13:30:11.469Z,37.17
2019-04-05T13:32:40.594Z,35.92
2019-04-05T13:35:10.103Z,36.08
2019-04-05T13:37:39.192Z,36.93
2019-04-05T13:40:09.176Z,36.48
2019-04-05T13:42:38.244Z,35.85
2019-04-05T13:45:08.440Z,37.40
2019-04-05T13:47:38.868Z,35.63
2019-04-05T13:50:11.333Z,35.90
2019-04-05T13:52:42.166Z,37.42
2019-04-05T13:55:11.513Z,35.68
2019-04-05T13:57:41.246Z,35.45
2019-04-05T14:00:12.380Z,37.58
2019-04-05T14:02:41.443Z,37.98
2019-04-05T14:05:10.947Z,37.48
2019-04-05T14:07:40.023Z,37.03
2019-04-05T14:10:12.295Z,36.83
2019-04-05T14:12:41.012Z,35.95
2019-04-05T14:15:11.356Z,35.23
2019-04-05T14:17:44.104Z,37.70
2019-04-05T14:20:13.885Z,37.35
2019-04-05T14:22:42.945Z,37.40
2019-04-05T14:25:12.422Z,37.35
2019-04-05T14:27:41.498Z,37.70
2019-04-05T14:30:13.542Z,38.42
2019-04-05T14:32:42.122Z,37.50
2019-04-05T14:35:11.828Z,35.98
2019-04-05T14:37:40.921Z,37.13
2019-04-05T14:40:10.799Z,37.38
2019-04-05T14:42:42.609Z,39.08
2019-04-05T14:45:11.793Z,36.00
2019-04-05T14:47:41.589Z,35.98
2019-04-05T14:50:11.418Z,38.88
2019-04-05T14:52:40.577Z,37.20
2019-04-05T14:55:10.385Z,36.65
2019-04-05T14:57:39.461Z,37.40
2019-04-05T15:00:10.165Z,37.08
2019-04-05T15:02:39.225Z,36.90
2019-04-05T15:05:09.250Z,37.88
2019-04-05T15:07:38.319Z,35.80
2019-04-05T15:10:08.121Z,35.35
2019-04-05T15:12:37.196Z,35.65
2019-04-05T15:15:07.390Z,34.88
2019-04-05T15:17:47.453Z,35.37
2019-04-05T15:20:10.570Z,34.58
2019-04-05T15:22:41.755Z,35.35
2019-04-05T15:25:10.805Z,35.92
2019-04-05T15:27:39.685Z,33.60
2019-04-05T15:30:10.121Z,34.40
2019-04-05T15:32:39.338Z,35.05
2019-04-05T15:35:08.640Z,35.03
2019-04-05T15:37:38.012Z,34.90
2019-04-05T15:40:07.763Z,35.00
2019-04-05T15:42:37.031Z,35.52
2019-04-05T15:45:08.482Z,36.10
2019-04-05T15:47:37.884Z,36.95
2019-04-05T15:50:08.207Z,35.45
2019-04-05T15:52:37.364Z,39.30
2019-04-05T15:55:07.392Z,37.25
2019-04-05T15:57:39.348Z,36.45
2019-04-05T16:00:11.185Z,35.65
2019-04-05T16:02:42.860Z,35.70
2019-04-05T16:05:11.645Z,36.90
2019-04-05T16:07:40.718Z,34.18
2019-04-05T16:10:10.298Z,34.85
2019-04-05T16:12:39.381Z,35.58
2019-04-05T16:15:08.778Z,35.63
2019-04-05T16:17:37.908Z,34.45
2019-04-05T16:20:11.090Z,35.28
2019-04-05T16:22:40.189Z,36.17
2019-04-05T16:25:09.601Z,38.63
2019-04-05T16:27:38.666Z,38.45
2019-04-05T16:30:09.172Z,36.75
2019-04-05T16:32:38.236Z,38.53
2019-04-05T16:35:07.374Z,34.53
2019-04-05T16:37:36.455Z,35.40
2019-04-05T16:40:09.597Z,35.98
2019-04-05T16:42:38.668Z,35.35
2019-04-05T16:45:11.249Z,35.35
2019-04-05T16:47:40.320Z,35.75
2019-04-05T16:50:10.337Z,35.23
2019-04-05T16:52:45.032Z,37.73
2019-04-05T16:55:10.785Z,36.13
2019-04-05T16:57:40.038Z,36.35
2019-04-05T17:00:12.047Z,36.53
2019-04-05T17:02:41.361Z,34.85
2019-04-05T17:05:12.356Z,32.80
2019-04-05T17:07:41.511Z,36.48
2019-04-05T17:10:10.873Z,36.25
2019-04-05T17:12:40.155Z,36.88
2019-04-05T17:15:09.554Z,35.60
2019-04-05T17:17:38.783Z,34.38
2019-04-05T17:20:09.009Z,37.88
2019-04-05T17:22:38.393Z,40.10
2019-04-05T17:25:08.095Z,36.35
2019-04-05T17:27:37.198Z,35.78
2019-04-05T17:30:07.028Z,35.28
2019-04-05T17:32:36.235Z,36.55
2019-04-05T17:35:06.749Z,34.78
2019-04-05T17:37:35.884Z,36.08
2019-04-05T17:40:07.320Z,41.58
2019-04-05T17:42:36.500Z,35.30
2019-04-05T17:45:09.180Z,35.55
2019-04-05T17:47:38.400Z,34.92
2019-04-05T17:50:10.403Z,35.03
2019-04-05T17:52:38.959Z,37.83
2019-04-05T17:55:08.302Z,37.80
2019-04-05T17:57:37.608Z,38.60
2019-04-05T18:00:09.410Z,36.20
2019-04-05T18:02:38.590Z,36.68
2019-04-05T18:05:08.494Z,37.58
2019-04-05T18:07:37.630Z,36.30
2019-04-05T18:10:06.925Z,38.25
2019-04-05T18:12:36.064Z,38.50
2019-04-05T18:15:06.188Z,39.70
2019-04-05T18:17:37.436Z,39.33
2019-04-05T18:20:09.809Z,38.40
2019-04-05T18:22:38.289Z,40.03
2019-04-05T18:25:07.655Z,40.30
2019-04-05T18:27:36.947Z,38.50
2019-04-05T18:30:08.083Z,40.33
2019-04-05T18:32:41.868Z,39.80
2019-04-05T18:35:11.129Z,42.80
2019-04-05T18:37:40.191Z,42.27
2019-04-05T18:40:09.665Z,39.88
2019-04-05T18:42:38.811Z,38.58
2019-04-05T18:45:08.363Z,39.58
2019-04-05T18:47:37.433Z,38.05
2019-04-05T18:50:07.681Z,38.88
2019-04-05T18:52:36.827Z,38.63
2019-04-05T18:55:07.153Z,40.40
2019-04-05T18:57:36.257Z,39.38
2019-04-05T19:00:08.691Z,39.55
2019-04-05T19:02:37.957Z,37.30
2019-04-05T19:05:07.557Z,39.10
2019-04-05T19:07:36.747Z,38.83
2019-04-05T19:10:07.488Z,39.83
2019-04-05T19:12:36.672Z,40.40
2019-04-05T19:15:09.618Z,42.60
2019-04-05T19:17:38.845Z,41.30
2019-04-05T19:20:08.531Z,39.25
2019-04-05T19:22:37.678Z,39.83
2019-04-05T19:25:07.676Z,36.98
2019-04-05T19:27:36.825Z,37.10
2019-04-05T19:50:14.893Z,38.13
2019-04-05T19:52:43.958Z,38.45
2019-04-05T19:55:13.167Z,35.83
2019-04-05T19:57:42.284Z,35.17
2019-04-05T20:00:11.640Z,37.93
2019-04-05T20:02:40.766Z,35.95
2019-04-05T20:05:09.990Z,35.95
2019-04-05T20:07:39.048Z,35.52
2019-04-05T20:10:08.306Z,35.73
2019-04-05T20:12:37.348Z,36.30
2019-04-05T20:15:08.235Z,36.55
2019-04-05T20:17:37.553Z,34.88
2019-04-05T20:20:08.146Z,35.50
2019-04-05T20:22:37.247Z,35.83
2019-04-05T20:25:06.998Z,34.48
2019-04-05T20:27:36.071Z,34.60
2019-04-05T20:30:07.343Z,36.10
2019-04-05T20:32:36.398Z,36.28
2019-04-05T20:35:05.906Z,35.35
2019-04-05T20:37:34.973Z,35.52
2019-04-05T20:40:08.100Z,35.08
2019-04-05T20:42:37.161Z,36.40
2019-04-05T20:45:06.792Z,35.03
2019-04-05T20:47:35.836Z,35.52
2019-04-05T20:50:06.758Z,36.35
2019-04-05T20:52:35.848Z,35.38
2019-04-05T20:55:06.733Z,35.60
2019-04-05T20:57:35.802Z,37.83
2019-04-05T21:00:08.293Z,36.05
2019-04-05T21:02:37.395Z,36.20
2019-04-05T21:05:07.495Z,38.15
2019-04-05T21:07:36.563Z,36.65
2019-04-05T21:10:07.357Z,35.45
2019-04-05T21:12:36.419Z,35.80
2019-04-05T21:15:08.783Z,35.78
2019-04-05T21:17:37.849Z,35.78
2019-04-05T21:20:07.950Z,35.10
2019-04-05T21:22:37.009Z,35.95
2019-04-05T21:25:07.005Z,35.75
2019-04-05T21:27:36.087Z,36.73
2019-04-05T21:30:07.447Z,35.08
2019-04-05T21:32:36.494Z,35.83
2019-04-05T21:35:06.994Z,34.50
2019-04-05T21:37:36.042Z,35.15
2019-04-05T21:40:06.785Z,36.93
2019-04-05T21:42:35.813Z,33.88
2019-04-05T21:45:07.113Z,36.48
2019-04-05T21:47:36.184Z,35.92
2019-04-05T21:50:10.452Z,37.45
2019-04-05T21:52:39.524Z,35.33
2019-04-05T21:55:10.635Z,36.10
2019-04-05T21:57:39.758Z,35.52
2019-04-05T22:00:14.751Z,35.38
2019-04-05T22:02:43.822Z,34.92
2019-04-05T22:05:13.024Z,35.13
2019-04-05T22:07:42.470Z,35.92
2019-04-05T22:10:11.664Z,37.40
2019-04-05T22:12:40.710Z,36.10
2019-04-05T22:15:09.949Z,35.33
2019-04-05T22:17:39.003Z,35.45
2019-04-05T22:20:08.122Z,35.03
2019-04-05T22:22:37.191Z,36.98
2019-04-05T22:25:06.686Z,36.03
2019-04-05T22:27:35.723Z,34.67
2019-04-05T22:30:06.585Z,35.85
2019-04-05T22:32:35.799Z,35.10
2019-04-05T22:35:05.285Z,35.90
2019-04-05T22:37:34.366Z,35.68
2019-04-05T22:40:05.439Z,36.00
2019-04-05T22:42:34.551Z,36.23
2019-04-05T22:45:04.537Z,33.80
2019-04-05T22:47:33.600Z,34.95
2019-04-05T22:50:03.477Z,34.58
2019-04-05T22:52:32.555Z,34.23
2019-04-05T22:55:10.586Z,33.98
2019-04-05T22:57:32.395Z,33.35
2019-04-05T23:00:01.436Z,34.67
2019-04-05T23:02:30.520Z,34.92
2019-04-05T23:05:00.923Z,35.45
2019-04-05T23:07:30.377Z,34.27
2019-04-05T23:09:59.423Z,34.05
2019-04-05T23:12:28.492Z,34.78
2019-04-05T23:14:57.538Z,33.92
2019-04-05T23:17:26.576Z,35.35
2019-04-05T23:19:55.630Z,35.23
2019-04-05T23:22:24.762Z,35.28
2019-04-05T23:24:53.901Z,34.90
2019-04-05T23:27:22.943Z,35.25
2019-04-05T23:29:52.005Z,35.85
2019-04-05T23:32:21.066Z,36.70
2019-04-05T23:34:50.119Z,34.88
2019-04-05T23:37:19.208Z,34.38
2019-04-05T23:39:48.271Z,36.15
2019-04-05T23:42:17.370Z,35.50
2019-04-05T23:44:46.476Z,36.25
2019-04-05T23:47:15.508Z,33.63
2019-04-05T23:49:44.595Z,35.03
2019-04-05T23:52:13.718Z,35.78
2019-04-05T23:54:42.755Z,34.55
2019-04-05T23:57:11.834Z,34.35
2019-04-05T23:59:40.894Z,36.53
